Time;durP1;ratioP1;P1;durP2;ratioP2;P2;SDS_P1;SDS_P2;PMS_P1;PMS_P2;Temp;Humidity;BMP_temperature;BMP_pressure;BME280_temperature;BME280_humidity;BME280_pressure;Samples;Min_cycle;Max_cycle;Signal;HPM_P1;HPM_P2
2023/12/24 00:00:16;;;;;;;5.72;4.05;;;;;;;9.57;100.00;99898.63;6121244;23;20092;-73
2023/12/24 00:02:43;;;;;;;4.88;4.45;;;;;;;9.60;100.00;99901.03;6091524;23;20087;-73
2023/12/24 00:05:09;;;;;;;3.65;3.53;;;;;;;9.62;100.00;99919.28;6036010;23;20017;-73
2023/12/24 00:07:36;;;;;;;4.97;4.78;;;;;;;9.67;100.00;99910.22;6095137;23;20013;-74
2023/12/24 00:10:03;;;;;;;3.83;3.63;;;;;;;9.33;100.00;99898.31;6089570;23;20017;-73
2023/12/24 00:12:29;;;;;;;4.15;3.95;;;;;;;9.59;100.00;99959.63;6124077;23;20041;-72
2023/12/24 00:14:56;;;;;;;4.20;3.80;;;;;;;9.62;100.00;99976.91;6090138;23;20061;-73
2023/12/24 00:17:22;;;;;;;5.05;4.85;;;;;;;9.69;100.00;100007.06;6117716;23;20264;-74
2023/12/24 00:19:49;;;;;;;4.10;3.90;;;;;;;8.50;100.00;99802.00;6069271;23;20032;-73
2023/12/24 00:22:15;;;;;;;3.97;3.80;;;;;;;9.78;100.00;99985.53;6114669;23;20040;-74
2023/12/24 00:24:43;;;;;;;3.95;3.75;;;;;;;9.72;100.00;99984.16;6095982;23;20009;-73
2023/12/24 00:27:10;;;;;;;4.13;3.90;;;;;;;9.57;100.00;99962.31;6124734;23;20044;-72
2023/12/24 00:29:36;;;;;;;4.63;4.40;;;;;;;9.07;100.00;99919.03;6054516;23;20366;-73
2023/12/24 00:32:03;;;;;;;3.80;3.63;;;;;;;9.65;100.00;100042.25;6120388;23;20254;-74
2023/12/24 00:34:30;;;;;;;3.92;3.72;;;;;;;9.59;100.00;100054.75;6093827;23;20031;-72
2023/12/24 00:36:56;;;;;;;4.07;3.88;;;;;;;9.35;100.00;100067.50;6124864;23;20189;-74
2023/12/24 00:39:22;;;;;;;5.05;4.85;;;;;;;9.49;100.00;100149.69;6086093;23;20049;-73
2023/12/24 00:41:49;;;;;;;4.28;3.88;;;;;;;9.53;100.00;100157.28;6085780;23;20126;-72
2023/12/24 00:44:15;;;;;;;4.18;3.97;;;;;;;9.09;100.00;100123.94;6073251;23;20029;-73
2023/12/24 00:46:44;;;;;;;5.65;4.38;;;;;;;9.38;100.00;100203.53;6126545;23;20013;-75
2023/12/24 00:49:10;;;;;;;4.20;4.00;;;;;;;9.30;100.00;100194.38;6074332;23;20535;-72
2023/12/24 00:51:42;;;;;;;4.28;4.07;;;;;;;8.85;100.00;100136.59;6115305;23;20250;-74
2023/12/24 00:54:09;;;;;;;3.95;3.75;;;;;;;8.94;100.00;100156.19;6099132;23;20437;-73
2023/12/24 00:56:36;;;;;;;3.67;3.58;;;;;;;9.09;100.00;100171.06;6124496;23;20021;-72
2023/12/24 00:59:02;;;;;;;4.05;3.85;;;;;;;9.11;100.00;100187.53;6082312;23;20017;-73
2023/12/24 01:01:29;;;;;;;4.85;4.65;;;;;;;9.33;100.00;100204.69;6122968;23;20096;-71
2023/12/24 01:03:55;;;;;;;4.10;3.90;;;;;;;9.35;100.00;100180.09;6103477;23;20042;-73
2023/12/24 01:06:22;;;;;;;3.65;3.55;;;;;;;9.44;100.00;100157.81;6132642;23;20026;-74
2023/12/24 01:08:49;;;;;;;3.70;3.60;;;;;;;9.35;100.00;100135.59;6042991;23;20119;-73
2023/12/24 01:11:15;;;;;;;3.67;3.58;;;;;;;9.54;100.00;100114.47;6123294;23;20385;-72
2023/12/24 01:13:41;;;;;;;3.60;3.50;;;;;;;9.30;100.00;100011.94;6074957;23;20319;-72
2023/12/24 01:16:11;;;;;;;4.13;3.92;;;;;;;9.34;100.00;99968.06;6119290;23;20025;-71
2023/12/24 01:18:37;;;;;;;3.60;3.50;;;;;;;9.39;100.00;99937.25;6071626;23;20017;-72
2023/12/24 01:21:04;;;;;;;4.00;3.80;;;;;;;9.44;100.00;99963.16;6116022;23;20025;-73
2023/12/24 01:23:30;;;;;;;4.93;4.72;;;;;;;9.51;100.00;99998.53;6071417;23;20480;-72
2023/12/24 01:25:57;;;;;;;3.97;3.78;;;;;;;9.58;100.00;100039.13;6127238;23;20037;-72
2023/12/24 01:28:23;;;;;;;4.00;3.70;;;;;;;9.51;100.00;100064.00;6088189;23;20037;-73
2023/12/24 01:30:50;;;;;;;3.92;3.72;;;;;;;9.43;100.00;100121.22;6124523;23;20029;-73
2023/12/24 01:33:17;;;;;;;3.70;3.60;;;;;;;9.02;100.00;100122.63;6093161;23;20121;-72
2023/12/24 01:35:46;;;;;;;3.70;3.60;;;;;;;9.02;100.00;100148.78;6053853;23;20057;-73
2023/12/24 01:38:13;;;;;;;5.28;4.97;;;;;;;9.19;100.00;100198.44;6117277;23;20029;-71
2023/12/24 01:40:46;;;;;;;4.10;3.90;;;;;;;9.33;100.00;100212.56;6094427;23;20079;-73
2023/12/24 01:43:12;;;;;;;3.75;3.58;;;;;;;9.33;100.00;100186.38;6092406;23;20036;-72
2023/12/24 01:45:39;;;;;;;4.20;3.95;;;;;;;9.05;100.00;100156.47;6081223;23;20479;-72
2023/12/24 01:48:06;;;;;;;3.95;3.75;;;;;;;9.11;100.00;100166.59;6114152;23;20540;-72
2023/12/24 01:50:35;;;;;;;3.40;3.30;;;;;;;9.29;100.00;100172.59;6113712;23;20018;-72
2023/12/24 01:53:04;;;;;;;4.07;3.88;;;;;;;9.27;100.00;100147.44;6115922;23;20028;-72
2023/12/24 01:55:33;;;;;;;4.85;4.65;;;;;;;8.75;100.00;100039.44;6112035;23;20021;-73
2023/12/24 01:57:59;;;;;;;3.80;3.65;;;;;;;9.34;100.00;100080.69;6137862;23;20025;-72
2023/12/24 02:00:26;;;;;;;3.50;3.40;;;;;;;8.16;100.00;99863.16;6113566;23;20056;-72
2023/12/24 02:02:54;;;;;;;3.78;3.55;;;;;;;9.04;100.00;99961.09;6138672;23;20306;-75
2023/12/24 02:05:21;;;;;;;4.45;4.25;;;;;;;9.46;100.00;100011.03;6060525;23;20029;-72
2023/12/24 02:07:51;;;;;;;3.97;3.78;;;;;;;9.48;100.00;100002.19;6139729;23;20021;-72
2023/12/24 02:10:18;;;;;;;3.60;3.50;;;;;;;9.42;100.00;99989.44;6105135;23;20022;-74
2023/12/24 02:12:45;;;;;;;3.80;3.60;;;;;;;9.48;100.00;99996.94;6116771;23;20013;-73
2023/12/24 02:15:11;;;;;;;4.10;3.70;;;;;;;9.43;100.00;100014.69;6108206;23;20029;-74
2023/12/24 02:17:38;;;;;;;4.25;3.80;;;;;;;9.40;100.00;100017.47;6136738;23;20046;-72
2023/12/24 02:20:06;;;;;;;3.70;3.60;;;;;;;9.23;100.00;100008.00;6111235;23;20025;-71
2023/12/24 02:22:33;;;;;;;3.70;3.60;;;;;;;9.44;100.00;100060.91;6135140;23;20025;-72
2023/12/24 02:25:01;;;;;;;4.20;4.00;;;;;;;9.06;100.00;100039.50;6086216;23;20055;-72
2023/12/24 02:27:42;;;;;;;5.38;5.18;;;;;;;9.23;100.00;100104.03;6138594;23;20021;-72
2023/12/24 02:30:21;;;;;;;3.80;3.70;;;;;;;8.97;100.00;100099.28;6084894;23;20107;-72
2023/12/24 02:32:53;;;;;;;3.80;3.63;;;;;;;8.96;100.00;100136.00;6107241;23;20042;-74
2023/12/24 02:35:21;;;;;;;4.25;4.07;;;;;;;8.91;100.00;100140.66;6097425;23;20042;-73
2023/12/24 02:37:48;;;;;;;3.78;3.65;;;;;;;9.15;100.00;100188.22;6057782;23;20144;-72
2023/12/24 02:40:14;;;;;;;3.58;3.47;;;;;;;8.72;100.00;100125.97;6132469;23;20028;-73
2023/12/24 02:42:41;;;;;;;4.20;4.00;;;;;;;8.88;100.00;100153.91;6087241;23;20088;-74
2023/12/24 02:45:11;;;;;;;4.40;4.20;;;;;;;8.83;100.00;100148.94;6144926;23;20023;-73
2023/12/24 02:47:37;;;;;;;5.07;4.60;;;;;;;9.11;100.00;100195.38;6106729;23;20201;-73
2023/12/24 02:50:05;;;;;;;4.38;4.03;;;;;;;9.05;100.00;100194.88;6138986;23;20479;-73
2023/12/24 02:52:32;;;;;;;3.60;3.47;;;;;;;9.03;100.00;100189.72;6082484;23;20483;-72
2023/12/24 02:54:58;;;;;;;4.10;3.90;;;;;;;9.07;100.00;100199.09;6131002;23;20670;-73
2023/12/24 02:57:26;;;;;;;5.20;4.95;;;;;;;9.04;100.00;100198.41;6080109;23;20049;-72
2023/12/24 02:59:53;;;;;;;4.10;3.90;;;;;;;8.99;100.00;100182.97;6055431;23;20529;-72
2023/12/24 03:02:21;;;;;;;3.88;3.67;;;;;;;8.95;100.00;100184.06;6113240;23;20201;-73
2023/12/24 03:04:47;;;;;;;4.00;3.80;;;;;;;8.94;100.00;100198.06;6106425;23;20021;-72
2023/12/24 03:07:14;;;;;;;3.60;3.50;;;;;;;8.54;100.00;100132.19;6111160;23;20085;-74
2023/12/24 03:09:40;;;;;;;4.20;4.00;;;;;;;8.98;100.00;100212.69;6096693;23;20110;-73
2023/12/24 03:12:07;;;;;;;4.00;3.80;;;;;;;9.03;100.00;100201.97;6111218;23;20031;-73
2023/12/24 03:14:33;;;;;;;3.70;3.50;;;;;;;8.98;100.00;100189.16;6138495;23;20016;-73
2023/12/24 03:17:00;;;;;;;4.30;4.10;;;;;;;8.32;100.00;100082.75;6105114;23;20040;-72
2023/12/24 03:19:27;;;;;;;5.40;5.13;;;;;;;9.04;100.00;100194.03;6112873;23;20078;-72
2023/12/24 03:21:53;;;;;;;4.03;3.83;;;;;;;9.08;100.00;100192.94;6107696;23;20022;-73
2023/12/24 03:24:20;;;;;;;3.70;3.60;;;;;;;9.08;100.00;100190.34;6122182;23;20092;-72
2023/12/24 03:26:46;;;;;;;3.90;3.70;;;;;;;8.67;100.00;100127.97;6104110;23;20036;-73
2023/12/24 03:29:13;;;;;;;4.10;3.90;;;;;;;9.12;100.00;100191.84;6124983;23;20039;-72
2023/12/24 03:31:39;;;;;;;4.20;4.00;;;;;;;8.89;100.00;100153.81;6109586;23;20103;-73
2023/12/24 03:34:06;;;;;;;4.18;3.97;;;;;;;9.17;100.00;100208.13;6136225;23;20085;-73
2023/12/24 03:36:32;;;;;;;3.75;3.63;;;;;;;8.77;100.00;100170.19;6106476;23;20021;-72
2023/12/24 03:39:01;;;;;;;4.32;4.13;;;;;;;7.81;100.00;99982.63;6138797;23;20040;-72
2023/12/24 03:41:28;;;;;;;5.35;5.05;;;;;;;9.13;100.00;100198.75;6105320;23;20176;-72
2023/12/24 03:43:54;;;;;;;4.18;3.97;;;;;;;8.72;100.00;100118.13;6125579;23;20036;-72
2023/12/24 03:46:21;;;;;;;4.22;4.03;;;;;;;8.89;100.00;100134.66;6099115;23;20367;-72
2023/12/24 03:48:47;;;;;;;3.75;3.58;;;;;;;9.01;100.00;100157.56;6065294;23;20230;-72
2023/12/24 03:51:14;;;;;;;3.90;3.70;;;;;;;9.15;100.00;100157.63;6077868;23;20104;-72
2023/12/24 03:53:41;;;;;;;4.20;4.00;;;;;;;9.23;100.00;100177.34;6048365;23;20014;-72
2023/12/24 03:56:11;;;;;;;4.40;4.20;;;;;;;9.21;100.00;100177.41;6107489;23;20624;-72
2023/12/24 03:58:38;;;;;;;3.95;3.75;;;;;;;8.75;100.00;100091.78;6049770;23;20033;-72
2023/12/24 04:01:10;;;;;;;4.20;4.00;;;;;;;8.97;100.00;100117.63;6096350;23;20033;-73
2023/12/24 04:03:37;;;;;;;;;;;;;;;9.26;100.00;100167.53;6072222;23;20119;-73
2023/12/24 04:06:13;;;;;;;4.10;3.90;;;;;;;9.26;100.00;100164.06;6106082;23;19909;-73
2023/12/24 04:08:40;;;;;;;3.80;3.60;;;;;;;9.32;100.00;100166.34;6071407;23;20026;-72
2023/12/24 04:11:17;;;;;;;4.03;3.83;;;;;;;9.23;100.00;100156.38;6078800;23;20041;-72
2023/12/24 04:13:44;;;;;;;3.80;3.60;;;;;;;8.93;100.00;100097.78;6082838;23;20029;-74
2023/12/24 04:16:10;;;;;;;3.90;3.70;;;;;;;9.26;100.00;100151.84;6096970;23;20078;-75
2023/12/24 04:18:37;;;;;;;3.90;3.70;;;;;;;9.32;100.00;100155.84;6072012;23;20028;-73
2023/12/24 04:21:04;;;;;;;4.10;3.90;;;;;;;9.05;100.00;100100.66;6096083;23;20266;-72
2023/12/24 04:23:30;;;;;;;4.82;4.63;;;;;;;8.88;100.00;100081.50;6077598;23;20381;-72
2023/12/24 04:25:57;;;;;;;3.70;3.53;;;;;;;9.06;100.00;100108.44;6101875;23;20437;-72
2023/12/24 04:28:26;;;;;;;3.70;3.60;;;;;;;9.34;100.00;100138.28;6073067;23;20027;-74
2023/12/24 04:30:53;;;;;;;3.67;3.58;;;;;;;8.31;100.00;99968.63;6103360;23;20005;-73
2023/12/24 04:33:19;;;;;;;4.25;4.05;;;;;;;9.34;100.00;100127.81;6076710;23;20026;-73
2023/12/24 04:35:46;;;;;;;4.30;3.90;;;;;;;9.34;100.00;100130.44;6075921;23;20017;-72
2023/12/24 04:38:14;;;;;;;3.70;3.60;;;;;;;9.34;100.00;100118.19;6099322;23;20658;-72
2023/12/24 04:40:40;;;;;;;3.70;3.60;;;;;;;9.02;100.00;100062.41;6066628;23;20433;-73
2023/12/24 04:43:07;;;;;;;4.20;4.00;;;;;;;9.32;100.00;100106.09;6083428;23;20081;-71
2023/12/24 04:45:33;;;;;;;5.03;4.82;;;;;;;9.31;100.00;100112.28;6075891;23;20014;-73
2023/12/24 04:48:03;;;;;;;4.00;3.80;;;;;;;9.36;100.00;100118.97;6111055;23;20389;-72
2023/12/24 04:50:30;;;;;;;3.40;3.30;;;;;;;8.88;100.00;100042.25;6103307;23;20084;-74
2023/12/24 04:52:56;;;;;;;3.65;3.53;;;;;;;9.28;100.00;100110.69;6098643;23;20088;-73
2023/12/24 04:55:23;;;;;;;4.75;4.55;;;;;;;9.33;100.00;100126.13;6099003;23;20564;-73
2023/12/24 04:57:49;;;;;;;3.60;3.50;;;;;;;9.31;100.00;100114.91;6104637;23;20459;-73
2023/12/24 05:00:16;;;;;;;3.50;3.40;;;;;;;9.11;100.00;100088.06;6067310;23;20342;-72
2023/12/24 05:02:43;;;;;;;3.50;3.40;;;;;;;9.32;100.00;100099.13;6105811;23;20081;-72
2023/12/24 05:05:10;;;;;;;3.53;3.42;;;;;;;9.29;100.00;100106.28;6091074;23;20030;-74
2023/12/24 05:07:37;;;;;;;5.68;4.32;;;;;;;9.11;100.00;100071.53;6109055;23;20264;-73
2023/12/24 05:10:04;;;;;;;3.70;3.60;;;;;;;8.59;100.00;99989.75;6071900;23;20076;-72
2023/12/24 05:12:30;;;;;;;3.50;3.40;;;;;;;9.30;100.00;100105.34;6120879;23;20350;-72
2023/12/24 05:14:59;;;;;;;3.50;3.40;;;;;;;9.32;100.00;100090.41;6070175;23;20070;-73
2023/12/24 05:17:26;;;;;;;4.78;4.57;;;;;;;9.35;100.00;100098.94;6098159;23;20456;-74
2023/12/24 05:19:52;;;;;;;3.90;3.70;;;;;;;9.33;100.00;100110.44;6081521;23;20018;-73
2023/12/24 05:22:20;;;;;;;3.65;3.55;;;;;;;9.30;100.00;100116.69;6108092;23;20029;-73
2023/12/24 05:24:47;;;;;;;3.88;3.67;;;;;;;8.74;100.00;100026.44;6084475;23;20014;-72
2023/12/24 05:27:14;;;;;;;3.50;3.40;;;;;;;8.69;100.00;100041.56;6054378;23;20086;-74
2023/12/24 05:29:40;;;;;;;3.50;3.40;;;;;;;8.87;100.00;100074.56;6105009;23;20363;-72
2023/12/24 05:32:07;;;;;;;3.75;3.65;;;;;;;9.18;100.00;100128.69;6085819;23;20527;-72
2023/12/24 05:34:34;;;;;;;3.58;3.47;;;;;;;9.18;100.00;100140.91;6052655;23;20109;-72
2023/12/24 05:37:00;;;;;;;3.97;3.80;;;;;;;8.95;100.00;100110.78;6114276;23;20346;-73
2023/12/24 05:39:27;;;;;;;5.07;4.88;;;;;;;8.87;100.00;100102.50;6077527;23;20096;-71
2023/12/24 05:41:54;;;;;;;3.63;3.53;;;;;;;8.08;100.00;99962.03;6116205;23;20033;-72
2023/12/24 05:44:20;;;;;;;3.60;3.50;;;;;;;9.10;100.00;100143.13;6081328;23;20296;-73
2023/12/24 05:46:51;;;;;;;3.70;3.60;;;;;;;8.44;100.00;100036.81;6107193;23;20034;-73
2023/12/24 05:49:18;;;;;;;3.85;3.65;;;;;;;9.12;100.00;100160.44;6095156;23;20032;-71
2023/12/24 05:51:44;;;;;;;3.60;3.50;;;;;;;9.17;100.00;100162.81;6110902;23;20361;-72
2023/12/24 05:54:11;;;;;;;3.80;3.70;;;;;;;8.80;100.00;100109.88;6111774;23;20029;-73
2023/12/24 05:56:37;;;;;;;3.55;3.45;;;;;;;9.14;100.00;100158.59;6144953;23;20023;-72
2023/12/24 05:59:04;;;;;;;4.00;3.80;;;;;;;9.15;100.00;100172.50;6102419;23;20108;-72
2023/12/24 06:01:30;;;;;;;4.70;4.50;;;;;;;8.77;100.00;100113.47;6155065;23;20082;-72
2023/12/24 06:03:58;;;;;;;3.60;3.50;;;;;;;9.21;100.00;100168.72;6085460;23;20243;-72
2023/12/24 06:06:24;;;;;;;3.40;3.30;;;;;;;9.13;100.00;100167.34;6128274;23;20055;-72
2023/12/24 06:08:51;;;;;;;4.13;3.92;;;;;;;9.13;100.00;100167.34;6114966;23;20595;-72
2023/12/24 06:11:17;;;;;;;4.03;3.83;;;;;;;8.98;100.00;100153.34;6135861;23;20020;-72
2023/12/24 06:13:45;;;;;;;3.80;3.60;;;;;;;8.76;100.00;100117.03;6072658;23;20022;-74
2023/12/24 06:16:13;;;;;;;3.80;3.70;;;;;;;9.24;100.00;100174.63;6136501;23;20348;-72
2023/12/24 06:18:42;;;;;;;3.50;3.40;;;;;;;8.92;100.00;100117.03;6115354;23;20028;-72
2023/12/24 06:21:09;;;;;;;3.70;3.60;;;;;;;9.31;100.00;100180.38;6142840;23;20025;-74
2023/12/24 06:23:36;;;;;;;4.45;4.25;;;;;;;9.29;100.00;100169.97;6078185;23;20010;-72
2023/12/24 06:26:03;;;;;;;3.65;3.55;;;;;;;8.96;100.00;100112.47;6141591;23;20059;-73
2023/12/24 06:28:30;;;;;;;3.42;3.33;;;;;;;9.41;100.00;100168.44;6108574;23;20108;-72
2023/12/24 06:30:56;;;;;;;3.53;3.42;;;;;;;9.35;100.00;100156.53;6142578;23;20021;-72
2023/12/24 06:33:23;;;;;;;4.80;4.60;;;;;;;9.26;100.00;100140.50;6104233;23;20053;-73
2023/12/24 06:35:49;;;;;;;4.95;4.03;;;;;;;9.37;100.00;100166.94;6084244;23;20030;-73
2023/12/24 06:38:16;;;;;;;3.50;3.40;;;;;;;8.93;100.00;100099.56;6152405;23;20111;-73
2023/12/24 06:40:43;;;;;;;3.70;3.50;;;;;;;9.14;100.00;100105.34;6107757;23;20074;-73
2023/12/24 06:43:09;;;;;;;5.07;4.88;;;;;;;9.36;100.00;100157.38;6140704;23;20397;-73
2023/12/24 06:45:36;;;;;;;4.55;4.35;;;;;;;9.37;100.00;100153.84;6106877;23;20028;-73
2023/12/24 06:48:02;;;;;;;3.78;3.60;;;;;;;9.37;100.00;100153.84;6141712;23;20411;-73
2023/12/24 06:50:32;;;;;;;3.50;3.40;;;;;;;9.31;100.00;100141.09;6111772;23;20037;-74
2023/12/24 06:52:59;;;;;;;3.85;3.65;;;;;;;8.83;100.00;100053.91;6136586;23;20063;-72
2023/12/24 06:55:25;;;;;;;4.45;4.25;;;;;;;9.47;100.00;100146.31;6110157;23;20258;-72
2023/12/24 06:57:52;;;;;;;3.95;3.75;;;;;;;9.49;100.00;100155.75;6136106;23;20380;-72
2023/12/24 07:00:19;;;;;;;4.03;3.83;;;;;;;9.32;100.00;100113.97;6111560;23;20501;-72
2023/12/24 07:02:45;;;;;;;3.58;3.47;;;;;;;9.56;100.00;100146.66;6117118;23;20033;-75
2023/12/24 07:05:12;;;;;;;3.80;3.70;;;;;;;9.41;100.00;100091.66;6105995;23;20717;-72
2023/12/24 07:07:39;;;;;;;3.60;3.50;;;;;;;9.59;100.00;100122.03;6140142;23;20017;-72
2023/12/24 07:10:06;;;;;;;3.75;3.65;;;;;;;9.56;100.00;100115.22;6106217;23;20022;-72
2023/12/24 07:12:32;;;;;;;3.55;3.45;;;;;;;9.04;100.00;100020.44;6142075;23;20723;-73
2023/12/24 07:14:59;;;;;;;3.83;3.67;;;;;;;9.48;100.00;100093.84;6109510;23;20024;-72
2023/12/24 07:17:25;;;;;;;4.75;4.55;;;;;;;9.65;100.00;100103.34;6130035;23;20114;-73
2023/12/24 07:19:52;;;;;;;3.80;3.60;;;;;;;9.60;100.00;100092.28;6110186;23;20021;-73
2023/12/24 07:22:18;;;;;;;3.85;3.72;;;;;;;9.69;100.00;100101.41;6137924;23;20025;-73
2023/12/24 07:24:46;;;;;;;3.47;3.38;;;;;;;9.43;100.00;100050.53;6109990;23;20030;-73
2023/12/24 07:27:12;;;;;;;3.80;3.70;;;;;;;9.77;100.00;100084.28;6080623;23;20508;-71
2023/12/24 07:29:41;;;;;;;4.13;3.92;;;;;;;9.61;100.00;100057.31;6105147;23;20456;-73
2023/12/24 07:32:08;;;;;;;3.72;3.63;;;;;;;9.70;100.00;100061.16;6137238;23;20028;-75
2023/12/24 07:34:35;;;;;;;4.18;3.95;;;;;;;9.48;100.00;100036.22;6106091;23;20255;-72
2023/12/24 07:37:01;;;;;;;4.10;3.90;;;;;;;9.68;100.00;100052.53;6140952;23;20388;-72
2023/12/24 07:39:27;;;;;;;5.00;4.80;;;;;;;9.59;100.00;100035.59;6077963;23;20021;-72
2023/12/24 07:41:55;;;;;;;3.85;3.65;;;;;;;9.53;100.00;100023.69;6037584;23;20125;-74
2023/12/24 07:44:22;;;;;;;4.78;4.57;;;;;;;9.38;100.00;99972.19;6134083;23;20096;-73
2023/12/24 07:46:48;;;;;;;3.50;3.40;;;;;;;9.82;100.00;100044.69;6081717;23;20350;-73
2023/12/24 07:49:17;;;;;;;4.10;3.90;;;;;;;9.82;100.00;100046.47;6137679;23;20017;-72
2023/12/24 07:51:44;;;;;;;3.70;3.60;;;;;;;9.49;100.00;99985.50;6057483;23;20077;-73
2023/12/24 07:54:11;;;;;;;4.20;4.00;;;;;;;9.67;100.00;100008.94;6139404;23;20385;-74
2023/12/24 07:56:37;;;;;;;3.60;3.50;;;;;;;9.77;100.00;100028.41;6112057;23;20092;-72
2023/12/24 07:59:04;;;;;;;3.95;3.75;;;;;;;9.84;100.00;100013.16;6135202;23;20037;-72
2023/12/24 08:01:30;;;;;;;4.93;4.72;;;;;;;9.70;100.00;100001.75;6084428;23;20075;-73
2023/12/24 08:03:57;;;;;;;3.67;3.58;;;;;;;9.28;100.00;99913.44;6106892;23;20349;-73
2023/12/24 08:06:23;;;;;;;4.10;3.90;;;;;;;9.61;100.00;99964.78;6109015;23;20038;-72
2023/12/24 08:08:55;;;;;;;3.58;3.47;;;;;;;10.06;100.00;100025.81;6135467;23;20407;-73
2023/12/24 08:11:22;;;;;;;4.80;4.60;;;;;;;9.66;100.00;99923.41;6102764;23;20021;-74
2023/12/24 08:13:48;;;;;;;4.10;3.90;;;;;;;9.69;100.00;99945.03;6138574;23;20035;-72
2023/12/24 08:16:15;;;;;;;4.38;4.18;;;;;;;9.72;100.00;99951.84;6102702;23;20013;-73
2023/12/24 08:18:42;;;;;;;3.97;3.78;;;;;;;10.07;100.00;99980.31;6137611;23;20042;-73
2023/12/24 08:21:10;;;;;;;7.38;4.13;;;;;;;9.78;100.00;99928.75;6107703;23;20089;-72
2023/12/24 08:23:40;;;;;;;4.40;4.20;;;;;;;8.97;100.00;99810.59;6097621;23;20173;-74
2023/12/24 08:26:09;;;;;;;4.07;3.88;;;;;;;9.81;100.00;99905.91;6130585;23;20037;-72
2023/12/24 08:28:38;;;;;;;3.85;3.70;;;;;;;10.10;100.00;99959.16;6105607;23;20010;-75
2023/12/24 08:31:04;;;;;;;3.90;3.70;;;;;;;9.73;100.00;99882.81;6128450;23;20017;-74
2023/12/24 08:33:31;;;;;;;4.93;4.72;;;;;;;9.54;100.00;99862.13;6103599;23;20037;-73
2023/12/24 08:36:00;;;;;;;4.00;3.80;;;;;;;10.22;100.00;99953.13;6138878;23;20029;-73
2023/12/24 08:38:27;;;;;;;3.75;3.55;;;;;;;9.65;100.00;99841.34;6098134;23;20041;-73
2023/12/24 08:40:53;;;;;;;3.80;3.70;;;;;;;10.20;100.00;99934.03;6125477;23;20311;-74
2023/12/24 08:43:19;;;;;;;4.40;4.20;;;;;;;10.24;100.00;99939.94;6106556;23;20048;-74
2023/12/24 08:45:46;;;;;;;4.20;4.00;;;;;;;10.04;100.00;99886.13;6123182;23;20261;-75
2023/12/24 08:48:13;;;;;;;4.15;3.95;;;;;;;10.18;100.00;99926.28;6106536;23;20084;-74
2023/12/24 08:50:40;;;;;;;3.60;3.50;;;;;;;10.15;100.00;99959.72;6138026;23;20467;-73
2023/12/24 08:53:09;;;;;;;3.95;3.78;;;;;;;10.17;100.00;99955.22;6101158;23;20041;-74
2023/12/24 08:55:35;;;;;;;4.95;4.75;;;;;;;10.15;100.00;99962.34;6128464;23;20020;-72
2023/12/24 08:58:02;;;;;;;3.75;3.60;;;;;;;9.80;100.00;99941.75;6057527;23;20628;-74
2023/12/24 09:00:29;;;;;;;3.72;3.63;;;;;;;9.92;100.00;99985.56;6131106;23;20408;-74
2023/12/24 09:02:55;;;;;;;3.95;3.78;;;;;;;10.11;100.00;100023.78;6086432;23;20039;-72
2023/12/24 09:05:22;;;;;;;4.82;4.63;;;;;;;10.08;100.00;100027.44;6136196;23;20112;-72
2023/12/24 09:07:49;;;;;;;3.72;3.63;;;;;;;9.92;100.00;99998.69;6088407;23;20042;-74
2023/12/24 09:10:16;;;;;;;3.83;3.70;;;;;;;10.14;100.00;100047.16;6097355;23;20657;-72
2023/12/24 09:12:42;;;;;;;3.60;3.50;;;;;;;9.81;100.00;99981.91;6131840;23;20022;-72
2023/12/24 09:15:09;;;;;;;4.28;4.07;;;;;;;10.04;100.00;99996.22;6084375;23;20186;-72
2023/12/24 09:17:35;;;;;;;4.90;4.70;;;;;;;10.24;100.00;100015.97;6134359;23;20007;-70
2023/12/24 09:20:02;;;;;;;3.85;3.65;;;;;;;10.30;100.00;99994.66;6113303;23;20041;-71
2023/12/24 09:22:32;;;;;;;3.90;3.70;;;;;;;9.99;100.00;99950.16;6137376;23;20192;-74
2023/12/24 09:24:59;;;;;;;3.80;3.70;;;;;;;10.28;100.00;99991.25;6087346;23;20425;-71
2023/12/24 09:27:25;;;;;;;5.43;5.13;;;;;;;8.55;100.00;99707.59;6110920;23;20092;-73
2023/12/24 09:29:52;;;;;;;4.50;3.70;;;;;;;10.01;100.00;99933.53;6082100;23;20157;-72
2023/12/24 09:32:18;;;;;;;4.13;3.92;;;;;;;10.36;100.00;99992.50;6129175;23;20032;-71
2023/12/24 09:34:45;;;;;;;3.78;3.67;;;;;;;10.37;100.00;99999.41;6104261;23;20013;-72
2023/12/24 09:37:12;;;;;;;4.20;4.00;;;;;;;10.34;100.00;99993.53;6133541;23;20025;-72
2023/12/24 09:39:38;;;;;;;4.20;4.00;;;;;;;10.43;100.00;100003.44;6108331;23;20515;-71
2023/12/24 09:42:05;;;;;;;4.03;3.83;;;;;;;10.46;100.00;100002.41;6141043;23;20035;-72
2023/12/24 09:44:33;;;;;;;3.88;3.70;;;;;;;10.15;100.00;99949.22;6111918;23;20155;-75
2023/12/24 09:47:03;;;;;;;4.00;3.80;;;;;;;10.49;100.00;99981.25;6132256;23;20546;-73
2023/12/24 09:49:29;;;;;;;5.15;4.95;;;;;;;10.15;100.00;99930.88;6115073;18;20348;-70
2023/12/24 09:51:58;;;;;;;4.00;3.80;;;;;;;10.26;100.00;99953.78;6026131;23;20022;-74
2023/12/24 09:54:25;;;;;;;4.10;3.90;;;;;;;10.52;100.00;99988.91;6042322;23;20019;-72
2023/12/24 09:56:55;;;;;;;4.20;4.00;;;;;;;10.18;100.00;99935.91;6051144;23;20331;-72
2023/12/24 09:59:22;;;;;;;4.93;4.72;;;;;;;10.02;100.00;99903.72;5987821;23;20204;-75
2023/12/24 10:01:48;;;;;;;3.85;3.72;;;;;;;10.36;100.00;99954.91;6054561;23;20109;-72
2023/12/24 10:04:15;;;;;;;4.18;3.97;;;;;;;10.40;100.00;99969.53;6049283;23;20047;-72
2023/12/24 10:06:51;;;;;;;3.97;3.78;;;;;;;10.59;100.00;99979.72;6055894;23;20014;-73
2023/12/24 10:09:21;;;;;;;4.18;3.97;;;;;;;10.62;100.00;99976.88;6047807;23;20026;-72
2023/12/24 10:12:08;;;;;;;3.95;3.75;;;;;;;10.25;100.00;99915.41;6027653;23;20029;-72
2023/12/24 10:14:36;;;;;;;3.90;3.75;;;;;;;10.60;100.00;99968.25;6053355;23;20026;-73
2023/12/24 10:17:03;;;;;;;3.80;3.60;;;;;;;10.35;100.00;99920.00;6046801;23;20497;-70
2023/12/24 10:19:30;;;;;;;5.20;5.00;;;;;;;10.67;100.00;99953.81;6051921;23;20031;-73
2023/12/24 10:22:01;;;;;;;4.07;3.88;;;;;;;10.63;100.00;99956.75;6051046;23;20023;-72
2023/12/24 10:24:35;;;;;;;4.35;4.15;;;;;;;10.64;100.00;99955.78;6037484;23;20109;-72
2023/12/24 10:27:06;;;;;;;4.20;4.00;;;;;;;10.01;100.00;99850.47;6050298;23;20036;-73
2023/12/24 10:29:35;;;;;;;5.78;5.30;;;;;;;10.17;100.00;99887.88;6030084;23;20027;-72
2023/12/24 10:32:04;;;;;;;4.10;3.90;;;;;;;10.65;100.00;99976.69;6045870;23;20021;-71
2023/12/24 10:34:33;;;;;;;4.15;3.95;;;;;;;10.18;100.00;99894.81;6049731;23;20045;-71
2023/12/24 10:37:15;;;;;;;4.05;3.85;;;;;;;10.53;100.00;99987.97;6049560;23;20022;-70
2023/12/24 10:39:42;;;;;;;4.30;4.10;;;;;;;10.12;100.00;99936.28;6037396;23;20427;-72
2023/12/24 10:42:08;;;;;;;4.10;3.90;;;;;;;10.55;100.00;100013.16;6036922;23;20075;-71
2023/12/24 10:44:36;;;;;;;4.00;3.80;;;;;;;10.57;100.00;100005.19;6050363;23;20229;-71
2023/12/24 10:47:07;;;;;;;4.10;3.90;;;;;;;9.83;100.00;99883.09;6035450;23;20022;-73
2023/12/24 10:49:37;;;;;;;5.30;5.00;;;;;;;10.05;100.00;99914.03;6040815;23;20097;-73
2023/12/24 10:52:03;;;;;;;4.13;3.92;;;;;;;10.51;100.00;99995.94;6054056;23;20107;-72
2023/12/24 10:54:31;;;;;;;4.20;4.00;;;;;;;10.55;100.00;100004.47;6050947;23;20029;-72
2023/12/24 10:57:23;;;;;;;4.53;4.30;;;;;;;10.58;100.00;100012.97;6057295;23;20465;-72
2023/12/24 11:00:07;;;;;;;3.88;3.67;;;;;;;10.54;100.00;100016.75;6046942;23;20538;-71
2023/12/24 11:02:36;;;;;;;3.97;3.78;;;;;;;9.98;100.00;99935.41;6010031;23;20509;-72
2023/12/24 11:05:05;;;;;;;4.20;4.00;;;;;;;10.54;100.00;100011.50;6030922;23;20101;-72
2023/12/24 11:07:32;;;;;;;6.18;5.55;;;;;;;10.55;100.00;100041.19;6049437;23;20019;-72
2023/12/24 11:10:04;;;;;;;4.00;3.83;;;;;;;10.63;100.00;100035.47;6045037;23;20090;-72
2023/12/24 11:12:31;;;;;;;;;;;;;;;10.61;100.00;100034.72;6052982;23;20343;-70
2023/12/24 11:14:59;;;;;;;3.95;3.75;;;;;;;9.91;100.00;99917.53;6055575;23;19910;-72
2023/12/24 11:17:36;;;;;;;5.45;5.20;;;;;;;10.68;100.00;100023.72;6044904;23;20017;-70
2023/12/24 11:20:18;;;;;;;5.13;4.82;;;;;;;10.73;100.00;100029.53;6050593;23;20034;-73
2023/12/24 11:23:07;;;;;;;4.40;4.20;;;;;;;10.66;100.00;100009.00;6052192;23;20054;-73
2023/12/24 11:25:40;;;;;;;5.38;5.18;;;;;;;10.75;100.00;100016.31;6036811;23;20022;-69
2023/12/24 11:28:12;;;;;;;4.20;4.00;;;;;;;10.41;100.00;99957.28;6052615;23;20433;-71